Time;durP1;ratioP1;P1;durP2;ratioP2;P2;SDS_P1;SDS_P2;PMS_P1;PMS_P2;Temp;Humidity;BMP_temperature;BMP_pressure;BME280_temperature;BME280_humidity;BME280_pressure;Samples;Min_cycle;Max_cycle;Signal;HPM_P1;HPM_P2
2024/02/07 07:39:53;;;;;;;1.47;0.40;;;5.80;99.90;;;;;;4909387;23;20663;-79
2024/02/07 07:42:19;;;;;;;0.50;0.23;;;5.80;99.90;;;;;;4962990;28;20208;-80
2024/02/07 07:44:46;;;;;;;0.20;0.10;;;5.60;99.90;;;;;;4962540;28;20651;-76
2024/02/07 07:47:13;;;;;;;1.60;0.50;;;5.60;99.90;;;;;;4933424;29;20260;-80
2024/02/07 07:49:42;;;;;;;0.60;0.20;;;5.50;99.90;;;;;;4929528;29;20232;-77
2024/02/07 07:52:09;;;;;;;0.40;0.30;;;5.30;99.90;;;;;;4937285;29;20243;-75
2024/02/07 07:54:37;;;;;;;5.50;0.30;;;5.20;99.90;;;;;;4937325;29;20283;-79
2024/02/07 07:57:05;;;;;;;1.20;0.40;;;5.10;99.90;;;;;;4937069;29;20707;-76
2024/02/07 07:59:32;;;;;;;1.80;0.30;;;5.10;99.90;;;;;;4937403;29;20244;-79
2024/02/07 08:02:00;;;;;;;2.73;0.30;;;5.10;99.90;;;;;;4939957;29;20238;-79
2024/02/07 08:04:27;;;;;;;1.10;0.30;;;5.00;99.90;;;;;;4937469;29;20327;-78
2024/02/07 08:06:55;;;;;;;0.30;0.20;;;5.00;99.90;;;;;;4937325;28;20271;-80
2024/02/07 08:09:22;;;;;;;2.93;0.30;;;5.00;99.90;;;;;;4937540;29;20212;-79
2024/02/07 08:11:49;;;;;;;0.40;0.20;;;5.00;99.90;;;;;;4937341;29;20297;-78
2024/02/07 08:14:18;;;;;;;5.00;1.27;;;4.90;99.90;;;;;;4937073;29;20664;-79
2024/02/07 08:16:46;;;;;;;0.57;0.27;;;5.10;99.90;;;;;;4937097;29;20256;-76
2024/02/07 08:19:14;;;;;;;0.73;0.10;;;5.20;99.90;;;;;;4936954;29;20247;-79
2024/02/07 08:21:41;;;;;;;2.00;0.37;;;5.10;99.90;;;;;;4936406;29;20212;-76
2024/02/07 08:24:08;;;;;;;0.77;0.20;;;5.20;99.90;;;;;;4932765;29;20573;-74
2024/02/07 08:26:35;;;;;;;1.20;0.30;;;5.20;99.90;;;;;;4935377;29;20229;-74
2024/02/07 08:29:02;;;;;;;0.90;0.40;;;5.30;99.90;;;;;;4935730;29;20742;-77
2024/02/07 08:31:31;;;;;;;3.70;0.83;;;5.30;99.90;;;;;;4935309;29;20707;-76
2024/02/07 08:33:58;;;;;;;4.37;0.40;;;5.40;99.90;;;;;;4950608;29;20215;-78
2024/02/07 08:36:25;;;;;;;0.60;0.40;;;5.50;99.90;;;;;;4941171;29;20287;-80
2024/02/07 08:38:52;;;;;;;3.37;0.20;;;5.60;99.90;;;;;;4936194;29;20236;-79
2024/02/07 08:41:19;;;;;;;1.27;0.30;;;5.60;99.90;;;;;;4937127;29;20248;-76
2024/02/07 08:43:46;;;;;;;1.30;0.70;;;5.50;99.90;;;;;;4936952;29;20225;-80
2024/02/07 08:46:13;;;;;;;2.90;0.30;;;5.60;99.90;;;;;;4937009;29;20260;-83
2024/02/07 18:05:41;;;;;;;3.20;1.60;;;5.30;99.90;;;;;;3129511;23;20658;-72
2024/02/07 18:08:08;;;;;;;4.43;1.93;;;5.20;99.90;;;;;;4928103;29;20296;-75
2024/02/07 18:10:35;;;;;;;2.47;1.30;;;5.20;99.90;;;;;;4928804;29;20530;-73
2024/02/07 18:13:02;;;;;;;3.90;1.67;;;5.10;99.90;;;;;;4916257;29;20771;-74
2024/02/07 18:15:29;;;;;;;4.27;1.63;;;5.20;99.90;;;;;;4901135;29;20314;-71
2024/02/07 18:17:56;;;;;;;4.70;2.23;;;5.20;99.90;;;;;;4897403;29;20237;-75
2024/02/07 18:20:23;;;;;;;4.63;2.20;;;5.30;99.90;;;;;;4897662;29;20297;-74
2024/02/07 18:22:51;;;;;;;3.10;1.67;;;5.30;99.90;;;;;;4897511;29;20589;-75
2024/02/07 18:25:18;;;;;;;4.80;2.13;;;5.30;99.90;;;;;;4897590;29;20238;-76
2024/02/07 18:27:45;;;;;;;4.90;2.50;;;5.40;99.90;;;;;;4897871;29;20297;-74
2024/02/07 18:30:12;;;;;;;4.97;2.27;;;5.40;99.90;;;;;;4888164;29;20214;-73
2024/02/07 18:32:39;;;;;;;5.83;2.70;;;5.40;99.90;;;;;;4897639;29;20253;-73
2024/02/07 18:35:06;;;;;;;5.07;2.53;;;5.30;99.90;;;;;;4908501;29;20304;-73
2024/02/07 18:37:33;;;;;;;3.10;1.80;;;5.40;99.90;;;;;;4901541;29;20241;-73
2024/02/07 18:40:01;;;;;;;4.43;2.57;;;5.30;99.90;;;;;;4899219;29;20289;-73
2024/02/07 18:42:28;;;;;;;5.93;2.10;;;5.20;99.90;;;;;;4915633;29;20292;-74
2024/02/07 18:44:55;;;;;;;4.63;2.43;;;5.30;99.90;;;;;;4915090;29;20327;-73
2024/02/07 18:47:22;;;;;;;4.93;2.07;;;5.50;99.90;;;;;;4915453;29;20209;-72
2024/02/07 18:49:49;;;;;;;5.43;2.80;;;5.50;99.90;;;;;;4916013;29;20249;-74
2024/02/07 18:52:16;;;;;;;3.13;2.07;;;5.60;99.90;;;;;;4902845;29;20213;-74
2024/02/07 18:54:43;;;;;;;4.13;2.47;;;5.50;99.90;;;;;;4895057;29;20634;-74
2024/02/07 18:57:11;;;;;;;6.03;2.93;;;5.40;99.90;;;;;;4911989;29;20214;-74
2024/02/07 18:59:38;;;;;;;6.17;3.13;;;5.50;99.90;;;;;;4908216;29;20546;-74
2024/02/07 19:02:05;;;;;;;5.27;2.77;;;5.60;99.90;;;;;;4894423;29;20225;-74
2024/02/07 19:04:32;;;;;;;4.43;2.40;;;5.70;99.90;;;;;;4907937;29;20325;-73
2024/02/07 19:06:59;;;;;;;5.43;2.47;;;5.50;99.90;;;;;;4915843;29;20629;-74
2024/02/07 19:09:25;;;;;;;5.80;2.97;;;5.60;99.90;;;;;;4898083;29;20217;-74
2024/02/07 19:11:55;;;;;;;6.70;2.83;;;5.50;99.90;;;;;;4900345;29;20217;-74
2024/02/07 19:14:25;;;;;;;5.40;3.13;;;5.30;99.90;;;;;;4896165;29;20321;-74
2024/02/07 19:16:54;;;;;;;4.93;2.63;;;5.40;99.90;;;;;;4895654;29;20752;-74
2024/02/07 19:19:21;;;;;;;7.23;2.77;;;5.40;99.90;;;;;;4895545;29;20226;-73
2024/02/07 19:21:48;;;;;;;8.50;3.00;;;5.40;99.90;;;;;;4897261;29;20238;-74
2024/02/07 19:24:19;;;;;;;7.13;3.27;;;5.50;99.90;;;;;;4901093;29;20270;-74
2024/02/07 19:26:47;;;;;;;5.57;3.00;;;5.60;99.90;;;;;;4901482;29;20242;-74
2024/02/07 19:29:14;;;;;;;6.17;3.07;;;5.40;99.90;;;;;;4901258;29;20237;-73
2024/02/07 19:31:42;;;;;;;6.80;3.10;;;5.50;99.90;;;;;;4894486;29;20218;-73
2024/02/07 19:34:09;;;;;;;6.40;3.07;;;5.60;99.90;;;;;;4901188;29;20321;-74
2024/02/07 19:36:36;;;;;;;6.37;3.20;;;5.70;99.90;;;;;;4901815;29;20252;-73
2024/02/07 19:39:03;;;;;;;8.73;3.90;;;5.90;99.90;;;;;;4908273;29;20304;-74
2024/02/07 19:41:30;;;;;;;9.07;3.50;;;6.20;99.90;;;;;;4917548;29;20304;-74
2024/02/07 19:43:57;;;;;;;7.40;3.90;;;6.20;99.90;;;;;;4900049;29;20309;-73
2024/02/07 19:46:25;;;;;;;8.77;4.30;;;6.20;99.90;;;;;;4899656;29;20278;-73
2024/02/07 19:48:53;;;;;;;8.07;3.63;;;6.10;99.90;;;;;;4907913;29;20704;-73
2024/02/07 19:51:20;;;;;;;8.60;3.83;;;6.30;99.90;;;;;;4918632;29;20256;-74
2024/02/07 19:53:47;;;;;;;6.87;3.80;;;6.50;99.90;;;;;;4918323;29;20226;-74
2024/02/07 19:56:15;;;;;;;14.00;4.40;;;6.60;99.90;;;;;;4918772;29;20569;-73
2024/02/07 19:58:41;;;;;;;8.97;3.60;;;6.70;99.90;;;;;;4918909;29;20214;-73
2024/02/07 20:01:09;;;;;;;11.57;4.30;;;6.80;99.90;;;;;;4902305;29;20245;-72
2024/02/07 20:03:36;;;;;;;10.13;4.83;;;6.60;99.90;;;;;;4902760;29;20238;-73
2024/02/07 20:06:05;;;;;;;9.23;4.27;;;6.70;99.90;;;;;;4912151;29;20289;-73
2024/02/07 20:08:31;;;;;;;9.97;4.40;;;6.70;99.90;;;;;;4899217;29;20298;-73
2024/02/07 20:10:58;;;;;;;9.50;4.60;;;6.40;99.90;;;;;;4908168;29;20210;-72
2024/02/07 20:13:25;;;;;;;8.87;4.33;;;6.50;99.90;;;;;;4918174;29;20267;-73
2024/02/07 20:15:52;;;;;;;11.57;4.57;;;6.70;99.90;;;;;;4917850;29;20569;-73
2024/02/07 20:18:19;;;;;;;8.73;4.43;;;6.80;99.90;;;;;;4918105;29;20292;-73
2024/02/07 20:20:46;;;;;;;10.53;3.60;;;6.80;99.90;;;;;;4917480;29;20683;-72
2024/02/07 20:23:14;;;;;;;9.00;4.40;;;6.60;99.90;;;;;;4917885;29;20230;-74
2024/02/07 20:25:41;;;;;;;9.60;4.30;;;6.40;99.90;;;;;;4917504;29;20320;-74
2024/02/07 20:28:09;;;;;;;10.30;4.40;;;6.40;99.90;;;;;;4918090;29;20273;-74
2024/02/07 20:30:37;;;;;;;11.67;4.33;;;6.40;99.90;;;;;;4917467;29;20210;-74
2024/02/07 20:33:06;;;;;;;9.33;3.73;;;6.50;99.90;;;;;;4916695;29;20277;-73
2024/02/07 20:35:34;;;;;;;9.03;4.67;;;6.70;99.90;;;;;;4917000;29;20213;-74
2024/02/07 20:38:01;;;;;;;8.03;3.70;;;6.60;99.90;;;;;;4917190;29;20233;-74
2024/02/07 20:40:29;;;;;;;8.53;3.60;;;6.50;99.90;;;;;;4917177;29;20206;-76
2024/02/07 20:42:56;;;;;;;7.27;3.43;;;6.30;99.90;;;;;;4917953;29;20238;-74
2024/02/07 20:45:23;;;;;;;10.47;3.43;;;6.20;99.90;;;;;;4893090;29;20673;-74
2024/02/07 20:47:52;;;;;;;8.40;4.13;;;6.00;99.90;;;;;;4917286;29;20253;-74
2024/02/07 20:50:20;;;;;;;9.47;3.37;;;6.00;99.90;;;;;;4917687;29;20217;-73
2024/02/07 20:52:47;;;;;;;8.87;4.77;;;6.10;99.90;;;;;;4904237;29;20328;-72
2024/02/07 20:55:14;;;;;;;12.90;4.03;;;6.20;99.90;;;;;;4910000;29;20297;-73
2024/02/07 20:57:45;;;;;;;9.67;4.30;;;6.20;99.90;;;;;;4911799;29;20248;-74
2024/02/07 21:00:13;;;;;;;7.43;3.63;;;6.20;99.90;;;;;;4909580;29;20218;-73
2024/02/07 21:02:40;;;;;;;10.40;3.77;;;6.10;99.90;;;;;;4897422;29;20316;-73
2024/02/07 21:05:07;;;;;;;10.53;4.37;;;6.10;99.90;;;;;;4898847;29;20589;-73
2024/02/07 21:07:34;;;;;;;6.70;3.47;;;6.10;99.90;;;;;;4899235;29;20300;-73
2024/02/07 21:10:01;;;;;;;7.93;3.33;;;6.40;99.90;;;;;;4899048;29;20246;-74
2024/02/07 21:12:28;;;;;;;7.83;3.50;;;6.40;99.90;;;;;;4899763;29;20296;-74
2024/02/07 21:14:56;;;;;;;7.57;3.90;;;6.30;99.90;;;;;;4899273;29;20238;-72
2024/02/07 21:17:23;;;;;;;6.97;3.27;;;6.30;99.90;;;;;;4899119;29;20213;-74
2024/02/07 21:19:50;;;;;;;8.47;3.10;;;6.60;99.90;;;;;;4898757;29;20305;-73
2024/02/07 21:22:17;;;;;;;7.23;3.33;;;6.80;99.90;;;;;;4899400;29;20214;-73
2024/02/07 21:24:44;;;;;;;9.97;2.83;;;6.80;99.90;;;;;;4898449;29;20214;-72
2024/02/07 21:27:11;;;;;;;8.40;2.80;;;7.00;99.90;;;;;;4899636;29;20222;-72
2024/02/07 21:29:38;;;;;;;6.07;3.13;;;7.00;99.90;;;;;;4898432;29;20638;-73
2024/02/07 21:32:09;;;;;;;6.17;3.03;;;7.00;99.90;;;;;;4898856;29;20232;-73
2024/02/07 21:34:36;;;;;;;9.40;3.60;;;6.80;99.90;;;;;;4898732;29;20286;-72
2024/02/07 21:37:03;;;;;;;7.13;3.17;;;6.80;99.90;;;;;;4899073;29;20214;-73
2024/02/07 21:39:30;;;;;;;10.57;4.07;;;6.60;99.90;;;;;;4909614;29;20665;-73
2024/02/07 21:41:58;;;;;;;9.03;4.03;;;6.50;99.90;;;;;;4916669;29;20214;-73
2024/02/07 21:44:25;;;;;;;6.57;2.60;;;6.50;99.90;;;;;;4904986;29;20282;-71
2024/02/07 21:46:51;;;;;;;10.23;3.43;;;6.70;99.90;;;;;;4897640;29;20244;-72
2024/02/07 21:49:20;;;;;;;8.33;3.47;;;6.90;99.90;;;;;;4898184;29;20516;-74
2024/02/07 21:51:46;;;;;;;7.67;2.80;;;7.00;99.90;;;;;;4898227;29;20323;-73
2024/02/07 21:54:13;;;;;;;10.23;3.10;;;6.90;99.90;;;;;;4898002;29;20237;-71
2024/02/07 21:56:40;;;;;;;10.87;3.27;;;6.90;99.90;;;;;;4897712;29;20306;-73
2024/02/07 21:59:07;;;;;;;8.17;3.13;;;6.70;99.90;;;;;;4898034;29;20210;-72
2024/02/07 22:01:34;;;;;;;15.60;3.87;;;6.60;99.90;;;;;;4897309;29;20256;-71
2024/02/07 22:04:01;;;;;;;8.77;4.23;;;6.60;99.90;;;;;;4897985;29;20317;-72
2024/02/07 22:06:29;;;;;;;8.00;3.60;;;6.60;99.90;;;;;;4904022;29;20320;-71
2024/02/07 22:08:56;;;;;;;6.97;3.20;;;6.40;99.90;;;;;;4903239;29;20218;-72
2024/02/07 22:11:23;;;;;;;8.60;3.20;;;6.40;99.90;;;;;;4897750;29;20248;-71
2024/02/07 22:13:50;;;;;;;12.70;5.20;;;6.30;99.90;;;;;;4897130;29;20230;-71
2024/02/07 22:16:16;;;;;;;8.00;3.23;;;6.10;99.90;;;;;;4897761;29;20673;-71
2024/02/07 22:18:44;;;;;;;8.70;3.77;;;6.10;99.90;;;;;;4898283;29;20210;-73
2024/02/07 22:21:11;;;;;;;8.07;3.30;;;6.30;99.90;;;;;;4898001;29;20217;-73
2024/02/07 22:23:39;;;;;;;6.40;3.33;;;6.50;99.90;;;;;;4898116;29;20237;-73
2024/02/07 22:26:06;;;;;;;8.07;3.47;;;6.50;99.90;;;;;;4898402;29;20238;-74
2024/02/07 22:28:33;;;;;;;7.20;2.93;;;6.60;99.90;;;;;;4898554;29;20218;-73
